sensor_id;sensor_type;location;lat;lon;timestamp;P1;durP1;ratioP1;P2;durP2;ratioP2
15454;SDS011;21057;51.024;7.540;2022-07-21T00:01:05;19.63;;;18.10;;
15454;SDS011;21057;51.024;7.540;2022-07-21T00:03:32;17.58;;;16.17;;
15454;SDS011;21057;51.024;7.540;2022-07-21T00:05:58;17.23;;;15.90;;
15454;SDS011;21057;51.024;7.540;2022-07-21T00:08:25;18.00;;;16.50;;
15454;SDS011;21057;51.024;7.540;2022-07-21T00:10:52;17.27;;;16.08;;
15454;SDS011;21057;51.024;7.540;2022-07-21T00:13:19;16.88;;;15.70;;
15454;SDS011;21057;51.024;7.540;2022-07-21T00:15:48;17.38;;;16.08;;
15454;SDS011;21057;51.024;7.540;2022-07-21T00:18:16;17.30;;;15.90;;
15454;SDS011;21057;51.024;7.540;2022-07-21T00:20:44;17.30;;;16.05;;
15454;SDS011;21057;51.024;7.540;2022-07-21T00:23:11;18.08;;;16.83;;
15454;SDS011;21057;51.024;7.540;2022-07-21T00:25:38;17.60;;;16.30;;
15454;SDS011;21057;51.024;7.540;2022-07-21T00:28:05;17.08;;;15.93;;
15454;SDS011;21057;51.024;7.540;2022-07-21T00:30:32;18.02;;;16.70;;
15454;SDS011;21057;51.024;7.540;2022-07-21T00:33:01;18.02;;;16.35;;
15454;SDS011;21057;51.024;7.540;2022-07-21T00:35:28;18.33;;;17.05;;
15454;SDS011;21057;51.024;7.540;2022-07-21T00:37:55;19.05;;;17.65;;
15454;SDS011;21057;51.024;7.540;2022-07-21T00:40:22;18.10;;;16.85;;
15454;SDS011;21057;51.024;7.540;2022-07-21T00:42:49;17.52;;;16.33;;
15454;SDS011;21057;51.024;7.540;2022-07-21T00:45:16;17.50;;;16.17;;
15454;SDS011;21057;51.024;7.540;2022-07-21T00:47:43;17.42;;;16.13;;
15454;SDS011;21057;51.024;7.540;2022-07-21T00:50:11;17.20;;;16.10;;
15454;SDS011;21057;51.024;7.540;2022-07-21T00:52:40;19.70;;;18.30;;
15454;SDS011;21057;51.024;7.540;2022-07-21T00:55:08;18.77;;;17.52;;
15454;SDS011;21057;51.024;7.540;2022-07-21T00:57:38;19.35;;;18.05;;
15454;SDS011;21057;51.024;7.540;2022-07-21T01:00:07;19.02;;;17.52;;
15454;SDS011;21057;51.024;7.540;2022-07-21T01:02:42;19.88;;;18.48;;
15454;SDS011;21057;51.024;7.540;2022-07-21T01:05:11;19.52;;;18.02;;
15454;SDS011;21057;51.024;7.540;2022-07-21T01:07:41;19.92;;;18.17;;
15454;SDS011;21057;51.024;7.540;2022-07-21T01:10:09;21.70;;;19.77;;
15454;SDS011;21057;51.024;7.540;2022-07-21T01:12:36;20.63;;;18.88;;
15454;SDS011;21057;51.024;7.540;2022-07-21T01:15:04;20.75;;;19.23;;
15454;SDS011;21057;51.024;7.540;2022-07-21T01:17:32;20.98;;;19.48;;
15454;SDS011;21057;51.024;7.540;2022-07-21T01:20:00;20.95;;;19.25;;
15454;SDS011;21057;51.024;7.540;2022-07-21T01:22:31;21.02;;;19.60;;
15454;SDS011;21057;51.024;7.540;2022-07-21T01:25:00;21.40;;;19.92;;
15454;SDS011;21057;51.024;7.540;2022-07-21T01:27:27;21.83;;;20.23;;
15454;SDS011;21057;51.024;7.540;2022-07-21T01:29:55;21.17;;;19.75;;
15454;SDS011;21057;51.024;7.540;2022-07-21T01:32:23;21.02;;;19.42;;
15454;SDS011;21057;51.024;7.540;2022-07-21T01:34:50;19.85;;;18.45;;
15454;SDS011;21057;51.024;7.540;2022-07-21T01:37:20;19.38;;;18.00;;
15454;SDS011;21057;51.024;7.540;2022-07-21T01:39:49;19.48;;;18.17;;
15454;SDS011;21057;51.024;7.540;2022-07-21T01:42:34;19.45;;;17.95;;
15454;SDS011;21057;51.024;7.540;2022-07-21T01:45:02;19.02;;;17.73;;
15454;SDS011;21057;51.024;7.540;2022-07-21T01:47:30;18.95;;;17.63;;
15454;SDS011;21057;51.024;7.540;2022-07-21T01:49:57;19.83;;;18.33;;
15454;SDS011;21057;51.024;7.540;2022-07-21T01:52:23;19.40;;;18.20;;
15454;SDS011;21057;51.024;7.540;2022-07-21T01:54:52;18.67;;;17.45;;
15454;SDS011;21057;51.024;7.540;2022-07-21T01:57:19;18.90;;;17.70;;
15454;SDS011;21057;51.024;7.540;2022-07-21T01:59:46;18.92;;;17.73;;
15454;SDS011;21057;51.024;7.540;2022-07-21T02:02:13;18.65;;;17.45;;
15454;SDS011;21057;51.024;7.540;2022-07-21T02:04:40;19.98;;;18.63;;
15454;SDS011;21057;51.024;7.540;2022-07-21T02:07:06;19.15;;;17.77;;
15454;SDS011;21057;51.024;7.540;2022-07-21T02:09:33;20.20;;;18.80;;
15454;SDS011;21057;51.024;7.540;2022-07-21T02:12:02;20.02;;;18.58;;
15454;SDS011;21057;51.024;7.540;2022-07-21T02:14:29;19.55;;;18.25;;
15454;SDS011;21057;51.024;7.540;2022-07-21T02:16:56;19.75;;;18.45;;
15454;SDS011;21057;51.024;7.540;2022-07-21T02:19:23;20.15;;;18.80;;
15454;SDS011;21057;51.024;7.540;2022-07-21T02:21:50;21.27;;;19.60;;
15454;SDS011;21057;51.024;7.540;2022-07-21T02:24:17;21.10;;;19.60;;
15454;SDS011;21057;51.024;7.540;2022-07-21T02:26:44;21.45;;;19.73;;
15454;SDS011;21057;51.024;7.540;2022-07-21T02:29:12;21.85;;;20.08;;
15454;SDS011;21057;51.024;7.540;2022-07-21T02:31:39;22.02;;;20.23;;
15454;SDS011;21057;51.024;7.540;2022-07-21T02:34:06;21.83;;;20.33;;
15454;SDS011;21057;51.024;7.540;2022-07-21T02:36:33;23.10;;;21.40;;
15454;SDS011;21057;51.024;7.540;2022-07-21T02:39:00;22.25;;;20.73;;
15454;SDS011;21057;51.024;7.540;2022-07-21T02:41:28;21.50;;;19.92;;
15454;SDS011;21057;51.024;7.540;2022-07-21T02:43:55;22.92;;;21.13;;
15454;SDS011;21057;51.024;7.540;2022-07-21T02:46:23;22.55;;;20.77;;
15454;SDS011;21057;51.024;7.540;2022-07-21T02:48:50;22.88;;;21.17;;
15454;SDS011;21057;51.024;7.540;2022-07-21T02:51:17;22.20;;;20.33;;
15454;SDS011;21057;51.024;7.540;2022-07-21T02:53:44;21.95;;;20.23;;
15454;SDS011;21057;51.024;7.540;2022-07-21T02:56:11;21.75;;;20.25;;
15454;SDS011;21057;51.024;7.540;2022-07-21T02:58:38;22.75;;;21.17;;
15454;SDS011;21057;51.024;7.540;2022-07-21T03:01:05;21.80;;;20.17;;
15454;SDS011;21057;51.024;7.540;2022-07-21T03:03:35;23.05;;;20.92;;
15454;SDS011;21057;51.024;7.540;2022-07-21T03:06:03;22.42;;;20.75;;
15454;SDS011;21057;51.024;7.540;2022-07-21T03:08:30;22.80;;;20.80;;
15454;SDS011;21057;51.024;7.540;2022-07-21T03:10:57;22.92;;;21.30;;
15454;SDS011;21057;51.024;7.540;2022-07-21T03:13:24;22.77;;;21.10;;
15454;SDS011;21057;51.024;7.540;2022-07-21T03:15:51;22.70;;;21.00;;
15454;SDS011;21057;51.024;7.540;2022-07-21T03:18:18;23.35;;;21.55;;
15454;SDS011;21057;51.024;7.540;2022-07-21T03:20:47;24.00;;;22.30;;
15454;SDS011;21057;51.024;7.540;2022-07-21T03:23:14;24.25;;;22.35;;
15454;SDS011;21057;51.024;7.540;2022-07-21T03:25:41;24.88;;;23.00;;
15454;SDS011;21057;51.024;7.540;2022-07-21T03:28:08;25.27;;;23.27;;
15454;SDS011;21057;51.024;7.540;2022-07-21T03:30:35;24.75;;;22.92;;
15454;SDS011;21057;51.024;7.540;2022-07-21T03:33:02;24.38;;;22.45;;
15454;SDS011;21057;51.024;7.540;2022-07-21T03:35:30;24.92;;;22.92;;
15454;SDS011;21057;51.024;7.540;2022-07-21T03:37:59;24.50;;;22.73;;
15454;SDS011;21057;51.024;7.540;2022-07-21T03:40:27;25.10;;;23.23;;
15454;SDS011;21057;51.024;7.540;2022-07-21T03:42:56;25.77;;;23.65;;
15454;SDS011;21057;51.024;7.540;2022-07-21T03:45:26;26.38;;;24.10;;
15454;SDS011;21057;51.024;7.540;2022-07-21T03:47:55;26.17;;;24.17;;
15454;SDS011;21057;51.024;7.540;2022-07-21T03:50:22;26.42;;;24.33;;
15454;SDS011;21057;51.024;7.540;2022-07-21T03:52:49;26.58;;;24.58;;
15454;SDS011;21057;51.024;7.540;2022-07-21T03:55:19;27.55;;;25.23;;
15454;SDS011;21057;51.024;7.540;2022-07-21T03:57:47;26.30;;;24.10;;
15454;SDS011;21057;51.024;7.540;2022-07-21T04:00:15;26.05;;;23.92;;
15454;SDS011;21057;51.024;7.540;2022-07-21T04:02:44;26.92;;;24.73;;
15454;SDS011;21057;51.024;7.540;2022-07-21T04:05:12;26.65;;;24.45;;
15454;SDS011;21057;51.024;7.540;2022-07-21T04:07:40;31.35;;;28.92;;
15454;SDS011;21057;51.024;7.540;2022-07-21T04:10:09;31.10;;;28.88;;
15454;SDS011;21057;51.024;7.540;2022-07-21T04:12:39;32.70;;;30.08;;
15454;SDS011;21057;51.024;7.540;2022-07-21T04:15:06;31.00;;;28.75;;
15454;SDS011;21057;51.024;7.540;2022-07-21T04:17:35;29.13;;;26.77;;
15454;SDS011;21057;51.024;7.540;2022-07-21T04:20:03;28.77;;;26.58;;
15454;SDS011;21057;51.024;7.540;2022-07-21T04:22:30;28.75;;;26.75;;
15454;SDS011;21057;51.024;7.540;2022-07-21T04:24:57;29.65;;;27.10;;
15454;SDS011;21057;51.024;7.540;2022-07-21T04:27:25;28.83;;;26.52;;
15454;SDS011;21057;51.024;7.540;2022-07-21T04:29:53;29.65;;;27.25;;
15454;SDS011;21057;51.024;7.540;2022-07-21T04:32:20;30.33;;;27.98;;
15454;SDS011;21057;51.024;7.540;2022-07-21T04:34:48;29.30;;;27.20;;
15454;SDS011;21057;51.024;7.540;2022-07-21T04:37:15;30.05;;;27.60;;
15454;SDS011;21057;51.024;7.540;2022-07-21T04:39:42;30.33;;;27.77;;
15454;SDS011;21057;51.024;7.540;2022-07-21T04:42:09;28.98;;;26.67;;
15454;SDS011;21057;51.024;7.540;2022-07-21T04:44:36;29.45;;;26.98;;
15454;SDS011;21057;51.024;7.540;2022-07-21T04:47:04;30.42;;;27.77;;
15454;SDS011;21057;51.024;7.540;2022-07-21T04:49:31;29.02;;;26.65;;
15454;SDS011;21057;51.024;7.540;2022-07-21T04:51:58;28.80;;;26.15;;
15454;SDS011;21057;51.024;7.540;2022-07-21T04:54:25;27.67;;;25.58;;
15454;SDS011;21057;51.024;7.540;2022-07-21T04:56:52;28.65;;;26.27;;
15454;SDS011;21057;51.024;7.540;2022-07-21T04:59:19;31.00;;;28.50;;
15454;SDS011;21057;51.024;7.540;2022-07-21T05:01:45;31.10;;;28.27;;
15454;SDS011;21057;51.024;7.540;2022-07-21T05:04:14;28.67;;;26.25;;
15454;SDS011;21057;51.024;7.540;2022-07-21T05:06:41;29.80;;;27.38;;
15454;SDS011;21057;51.024;7.540;2022-07-21T05:09:08;29.80;;;27.08;;
15454;SDS011;21057;51.024;7.540;2022-07-21T05:11:35;29.42;;;26.92;;
15454;SDS011;21057;51.024;7.540;2022-07-21T05:14:02;27.80;;;25.50;;
15454;SDS011;21057;51.024;7.540;2022-07-21T05:16:29;28.77;;;26.35;;
15454;SDS011;21057;51.024;7.540;2022-07-21T05:18:56;28.17;;;25.85;;
15454;SDS011;21057;51.024;7.540;2022-07-21T05:21:25;28.75;;;26.08;;
15454;SDS011;21057;51.024;7.540;2022-07-21T05:23:52;27.85;;;25.15;;
15454;SDS011;21057;51.024;7.540;2022-07-21T05:26:19;27.35;;;24.88;;
15454;SDS011;21057;51.024;7.540;2022-07-21T05:28:47;26.95;;;24.67;;
15454;SDS011;21057;51.024;7.540;2022-07-21T05:31:14;26.98;;;24.90;;
15454;SDS011;21057;51.024;7.540;2022-07-21T05:33:41;26.45;;;24.35;;
15454;SDS011;21057;51.024;7.540;2022-07-21T05:36:08;25.70;;;23.55;;
15454;SDS011;21057;51.024;7.540;2022-07-21T05:38:36;26.40;;;24.02;;
15454;SDS011;21057;51.024;7.540;2022-07-21T05:41:04;27.00;;;24.63;;
15454;SDS011;21057;51.024;7.540;2022-07-21T05:43:31;25.75;;;23.75;;
15454;SDS011;21057;51.024;7.540;2022-07-21T05:45:58;24.27;;;22.27;;
15454;SDS011;21057;51.024;7.540;2022-07-21T05:48:25;25.23;;;23.13;;
15454;SDS011;21057;51.024;7.540;2022-07-21T05:50:52;23.98;;;21.90;;
15454;SDS011;21057;51.024;7.540;2022-07-21T05:53:19;25.02;;;22.85;;
15454;SDS011;21057;51.024;7.540;2022-07-21T05:55:48;25.10;;;23.00;;
15454;SDS011;21057;51.024;7.540;2022-07-21T05:58:15;22.98;;;21.27;;
15454;SDS011;21057;51.024;7.540;2022-07-21T06:00:43;24.80;;;22.80;;
15454;SDS011;21057;51.024;7.540;2022-07-21T06:03:32;24.63;;;22.83;;
15454;SDS011;21057;51.024;7.540;2022-07-21T06:05:59;25.05;;;22.75;;
15454;SDS011;21057;51.024;7.540;2022-07-21T06:08:26;24.92;;;23.08;;
15454;SDS011;21057;51.024;7.540;2022-07-21T06:10:55;25.20;;;23.10;;
15454;SDS011;21057;51.024;7.540;2022-07-21T06:13:22;25.20;;;22.98;;
15454;SDS011;21057;51.024;7.540;2022-07-21T06:15:49;24.85;;;22.65;;
15454;SDS011;21057;51.024;7.540;2022-07-21T06:18:16;25.27;;;22.95;;
15454;SDS011;21057;51.024;7.540;2022-07-21T06:20:43;23.20;;;21.05;;
15454;SDS011;21057;51.024;7.540;2022-07-21T06:23:10;23.85;;;21.83;;
15454;SDS011;21057;51.024;7.540;2022-07-21T06:25:37;24.52;;;22.60;;
15454;SDS011;21057;51.024;7.540;2022-07-21T06:28:05;22.48;;;20.77;;
15454;SDS011;21057;51.024;7.540;2022-07-21T06:30:33;25.17;;;22.95;;
15454;SDS011;21057;51.024;7.540;2022-07-21T06:33:00;25.10;;;23.00;;
15454;SDS011;21057;51.024;7.540;2022-07-21T06:35:27;25.75;;;23.85;;
15454;SDS011;21057;51.024;7.540;2022-07-21T06:37:55;23.42;;;21.55;;
15454;SDS011;21057;51.024;7.540;2022-07-21T06:40:22;24.30;;;22.42;;
15454;SDS011;21057;51.024;7.540;2022-07-21T06:42:49;25.55;;;23.42;;
15454;SDS011;21057;51.024;7.540;2022-07-21T06:45:17;24.15;;;22.30;;
15454;SDS011;21057;51.024;7.540;2022-07-21T06:47:44;25.08;;;23.05;;
15454;SDS011;21057;51.024;7.540;2022-07-21T06:50:11;22.77;;;21.17;;
15454;SDS011;21057;51.024;7.540;2022-07-21T06:52:38;24.17;;;22.48;;
15454;SDS011;21057;51.024;7.540;2022-07-21T06:55:06;23.80;;;22.00;;
15454;SDS011;21057;51.024;7.540;2022-07-21T06:57:34;23.45;;;21.67;;
15454;SDS011;21057;51.024;7.540;2022-07-21T07:00:02;22.60;;;20.90;;
15454;SDS011;21057;51.024;7.540;2022-07-21T07:02:31;21.98;;;20.20;;
15454;SDS011;21057;51.024;7.540;2022-07-21T07:04:58;21.95;;;20.45;;
15454;SDS011;21057;51.024;7.540;2022-07-21T07:07:25;21.95;;;20.25;;
15454;SDS011;21057;51.024;7.540;2022-07-21T07:09:54;23.45;;;21.75;;
15454;SDS011;21057;51.024;7.540;2022-07-21T07:12:21;23.63;;;21.92;;
15454;SDS011;21057;51.024;7.540;2022-07-21T07:14:48;22.45;;;20.88;;
15454;SDS011;21057;51.024;7.540;2022-07-21T07:17:15;22.45;;;20.85;;
15454;SDS011;21057;51.024;7.540;2022-07-21T07:19:46;22.63;;;21.02;;
15454;SDS011;21057;51.024;7.540;2022-07-21T07:22:13;23.63;;;21.95;;
15454;SDS011;21057;51.024;7.540;2022-07-21T07:24:40;22.20;;;20.50;;
15454;SDS011;21057;51.024;7.540;2022-07-21T07:27:07;23.50;;;21.70;;
15454;SDS011;21057;51.024;7.540;2022-07-21T07:29:34;22.63;;;20.73;;
15454;SDS011;21057;51.024;7.540;2022-07-21T07:32:01;21.55;;;19.98;;
15454;SDS011;21057;51.024;7.540;2022-07-21T07:34:28;21.42;;;19.92;;
15454;SDS011;21057;51.024;7.540;2022-07-21T07:36:56;22.25;;;20.65;;
15454;SDS011;21057;51.024;7.540;2022-07-21T07:39:23;21.77;;;20.23;;
15454;SDS011;21057;51.024;7.540;2022-07-21T07:41:50;20.90;;;19.50;;
15454;SDS011;21057;51.024;7.540;2022-07-21T07:44:17;21.23;;;19.83;;
15454;SDS011;21057;51.024;7.540;2022-07-21T07:46:44;20.70;;;19.33;;
15454;SDS011;21057;51.024;7.540;2022-07-21T07:49:11;21.25;;;19.75;;
15454;SDS011;21057;51.024;7.540;2022-07-21T07:51:38;20.75;;;19.30;;
15454;SDS011;21057;51.024;7.540;2022-07-21T07:54:06;18.88;;;17.67;;
15454;SDS011;21057;51.024;7.540;2022-07-21T07:56:33;20.10;;;18.50;;
15454;SDS011;21057;51.024;7.540;2022-07-21T07:59:00;20.40;;;19.08;;
15454;SDS011;21057;51.024;7.540;2022-07-21T08:01:27;19.50;;;18.20;;
15454;SDS011;21057;51.024;7.540;2022-07-21T08:03:54;20.17;;;18.83;;
15454;SDS011;21057;51.024;7.540;2022-07-21T08:06:22;19.92;;;18.58;;
15454;SDS011;21057;51.024;7.540;2022-07-21T08:08:48;19.55;;;18.20;;
15454;SDS011;21057;51.024;7.540;2022-07-21T08:11:18;21.17;;;19.60;;
15454;SDS011;21057;51.024;7.540;2022-07-21T08:13:45;19.40;;;18.10;;
15454;SDS011;21057;51.024;7.540;2022-07-21T08:16:11;18.63;;;17.30;;
15454;SDS011;21057;51.024;7.540;2022-07-21T08:18:40;19.23;;;18.02;;
15454;SDS011;21057;51.024;7.540;2022-07-21T08:21:07;20.08;;;18.67;;
15454;SDS011;21057;51.024;7.540;2022-07-21T08:23:35;19.33;;;17.63;;
15454;SDS011;21057;51.024;7.540;2022-07-21T08:26:02;18.25;;;16.98;;
15454;SDS011;21057;51.024;7.540;2022-07-21T08:28:32;19.00;;;17.70;;
15454;SDS011;21057;51.024;7.540;2022-07-21T08:30:59;19.20;;;18.00;;
15454;SDS011;21057;51.024;7.540;2022-07-21T08:33:25;19.23;;;18.02;;
15454;SDS011;21057;51.024;7.540;2022-07-21T08:35:52;19.30;;;18.10;;
15454;SDS011;21057;51.024;7.540;2022-07-21T08:38:19;19.15;;;17.95;;
15454;SDS011;21057;51.024;7.540;2022-07-21T08:40:47;18.00;;;16.90;;
15454;SDS011;21057;51.024;7.540;2022-07-21T08:43:14;17.73;;;16.55;;
15454;SDS011;21057;51.024;7.540;2022-07-21T08:45:43;19.13;;;17.67;;
15454;SDS011;21057;51.024;7.540;2022-07-21T08:48:10;18.25;;;17.00;;
15454;SDS011;21057;51.024;7.540;2022-07-21T08:50:39;18.38;;;17.08;;
15454;SDS011;21057;51.024;7.540;2022-07-21T08:53:06;19.23;;;18.02;;
15454;SDS011;21057;51.024;7.540;2022-07-21T08:55:34;19.63;;;18.20;;
15454;SDS011;21057;51.024;7.540;2022-07-21T08:58:03;18.88;;;17.67;;
15454;SDS011;21057;51.024;7.540;2022-07-21T09:00:33;18.08;;;16.88;;
15454;SDS011;21057;51.024;7.540;2022-07-21T09:03:12;18.13;;;16.92;;
15454;SDS011;21057;51.024;7.540;2022-07-21T09:05:41;18.88;;;17.58;;
15454;SDS011;21057;51.024;7.540;2022-07-21T09:08:09;19.75;;;18.35;;
15454;SDS011;21057;51.024;7.540;2022-07-21T09:10:36;19.00;;;17.80;;
15454;SDS011;21057;51.024;7.540;2022-07-21T09:13:04;17.90;;;16.80;;
15454;SDS011;21057;51.024;7.540;2022-07-21T09:15:33;18.63;;;17.45;;
15454;SDS011;21057;51.024;7.540;2022-07-21T09:18:04;19.40;;;18.02;;
15454;SDS011;21057;51.024;7.540;2022-07-21T09:20:35;18.90;;;17.52;;
15454;SDS011;21057;51.024;7.540;2022-07-21T09:23:06;19.50;;;18.30;;
15454;SDS011;21057;51.024;7.540;2022-07-21T09:25:36;20.30;;;18.85;;
15454;SDS011;21057;51.024;7.540;2022-07-21T09:28:11;18.95;;;17.73;;
15454;SDS011;21057;51.024;7.540;2022-07-21T09:30:47;20.65;;;19.40;;
15454;SDS011;21057;51.024;7.540;2022-07-21T09:33:19;19.17;;;17.88;;
15454;SDS011;21057;51.024;7.540;2022-07-21T09:35:55;20.13;;;18.60;;
15454;SDS011;21057;51.024;7.540;2022-07-21T09:38:24;18.55;;;17.45;;
15454;SDS011;21057;51.024;7.540;2022-07-21T09:40:52;18.70;;;17.40;;
15454;SDS011;21057;51.024;7.540;2022-07-21T09:43:29;18.55;;;17.35;;
15454;SDS011;21057;51.024;7.540;2022-07-21T09:45:59;19.35;;;18.05;;
15454;SDS011;21057;51.024;7.540;2022-07-21T09:48:31;18.55;;;17.35;;
15454;SDS011;21057;51.024;7.540;2022-07-21T09:53:53;19.75;;;18.45;;
15454;SDS011;21057;51.024;7.540;2022-07-21T09:56:23;20.50;;;18.88;;
15454;SDS011;21057;51.024;7.540;2022-07-21T09:58:52;20.92;;;19.52;;
15454;SDS011;21057;51.024;7.540;2022-07-21T10:01:20;20.58;;;19.20;;
15454;SDS011;21057;51.024;7.540;2022-07-21T10:03:47;20.88;;;19.48;;
15454;SDS011;21057;51.024;7.540;2022-07-21T10:06:16;20.48;;;18.80;;
15454;SDS011;21057;51.024;7.540;2022-07-21T10:08:46;19.80;;;18.33;;
15454;SDS011;21057;51.024;7.540;2022-07-21T10:11:13;20.05;;;18.75;;
15454;SDS011;21057;51.024;7.540;2022-07-21T10:13:40;20.13;;;18.83;;
15454;SDS011;21057;51.024;7.540;2022-07-21T10:16:08;20.27;;;18.92;;
15454;SDS011;21057;51.024;7.540;2022-07-21T10:18:37;20.23;;;18.58;;
15454;SDS011;21057;51.024;7.540;2022-07-21T10:21:13;20.45;;;19.05;;
15454;SDS011;21057;51.024;7.540;2022-07-21T10:23:50;20.08;;;18.85;;
15454;SDS011;21057;51.024;7.540;2022-07-21T10:26:20;21.13;;;19.60;;
15454;SDS011;21057;51.024;7.540;2022-07-21T10:28:47;20.58;;;19.25;;
15454;SDS011;21057;51.024;7.540;2022-07-21T10:31:15;19.80;;;18.50;;
15454;SDS011;21057;51.024;7.540;2022-07-21T10:33:54;20.73;;;19.27;;
15454;SDS011;21057;51.024;7.540;2022-07-21T10:36:42;19.80;;;18.50;;
15454;SDS011;21057;51.024;7.540;2022-07-21T10:39:15;19.80;;;18.60;;
15454;SDS011;21057;51.024;7.540;2022-07-21T10:41:49;20.92;;;19.20;;
15454;SDS011;21057;51.024;7.540;2022-07-21T10:47:11;20.05;;;18.55;;
15454;SDS011;21057;51.024;7.540;2022-07-21T10:49:41;19.98;;;18.58;;
15454;SDS011;21057;51.024;7.540;2022-07-21T10:55:18;19.88;;;18.40;;
15454;SDS011;21057;51.024;7.540;2022-07-21T10:58:08;19.65;;;18.45;;
15454;SDS011;21057;51.024;7.540;2022-07-21T11:00:51;20.17;;;18.77;;
15454;SDS011;21057;51.024;7.540;2022-07-21T11:03:23;20.83;;;18.92;;
15454;SDS011;21057;51.024;7.540;2022-07-21T11:06:12;19.75;;;18.45;;
15454;SDS011;21057;51.024;7.540;2022-07-21T11:08:41;19.90;;;18.60;;
15454;SDS011;21057;51.024;7.540;2022-07-21T11:11:12;19.58;;;18.35;;
15454;SDS011;21057;51.024;7.540;2022-07-21T11:19:38;19.83;;;18.45;;
15454;SDS011;21057;51.024;7.540;2022-07-21T11:22:09;20.60;;;19.30;;
15454;SDS011;21057;51.024;7.540;2022-07-21T11:24:39;20.75;;;19.35;;
15454;SDS011;21057;51.024;7.540;2022-07-21T11:27:08;20.52;;;19.30;;
15454;SDS011;21057;51.024;7.540;2022-07-21T11:29:37;20.75;;;19.35;;
15454;SDS011;21057;51.024;7.540;2022-07-21T11:32:05;20.77;;;19.30;;
15454;SDS011;21057;51.024;7.540;2022-07-21T11:34:37;20.27;;;18.98;;
15454;SDS011;21057;51.024;7.540;2022-07-21T11:37:06;20.40;;;19.10;;
15454;SDS011;21057;51.024;7.540;2022-07-21T11:39:34;20.83;;;19.15;;
15454;SDS011;21057;51.024;7.540;2022-07-21T11:42:02;20.30;;;18.80;;
15454;SDS011;21057;51.024;7.540;2022-07-21T11:44:31;19.65;;;18.35;;
15454;SDS011;21057;51.024;7.540;2022-07-21T11:46:58;20.10;;;18.73;;
15454;SDS011;21057;51.024;7.540;2022-07-21T11:49:27;19.65;;;18.42;;
15454;SDS011;21057;51.024;7.540;2022-07-21T11:51:56;20.15;;;18.85;;
15454;SDS011;21057;51.024;7.540;2022-07-21T11:54:26;20.48;;;18.75;;
15454;SDS011;21057;51.024;7.540;2022-07-21T11:56:56;19.35;;;18.05;;
15454;SDS011;21057;51.024;7.540;2022-07-21T11:59:25;19.75;;;18.30;;
15454;SDS011;21057;51.024;7.540;2022-07-21T12:01:55;19.55;;;18.20;;
15454;SDS011;21057;51.024;7.540;2022-07-21T12:04:28;19.73;;;18.35;;
15454;SDS011;21057;51.024;7.540;2022-07-21T12:06:57;19.45;;;18.10;;
15454;SDS011;21057;51.024;7.540;2022-07-21T12:09:24;19.52;;;17.92;;
15454;SDS011;21057;51.024;7.540;2022-07-21T12:11:51;19.35;;;18.00;;
15454;SDS011;21057;51.024;7.540;2022-07-21T12:14:18;19.10;;;17.73;;
15454;SDS011;21057;51.024;7.540;2022-07-21T12:16:48;20.67;;;19.00;;
15454;SDS011;21057;51.024;7.540;2022-07-21T12:19:17;19.17;;;17.98;;
15454;SDS011;21057;51.024;7.540;2022-07-21T12:21:48;19.88;;;18.48;;
15454;SDS011;21057;51.024;7.540;2022-07-21T12:24:18;17.83;;;16.63;;
15454;SDS011;21057;51.024;7.540;2022-07-21T12:26:46;18.83;;;17.45;;
15454;SDS011;21057;51.024;7.540;2022-07-21T12:29:24;18.67;;;17.30;;
15454;SDS011;21057;51.024;7.540;2022-07-21T12:31:51;18.40;;;17.20;;
15454;SDS011;21057;51.024;7.540;2022-07-21T12:34:20;20.75;;;19.15;;
15454;SDS011;21057;51.024;7.540;2022-07-21T12:36:49;20.25;;;18.85;;
15454;SDS011;21057;51.024;7.540;2022-07-21T12:39:17;20.60;;;19.10;;
15454;SDS011;21057;51.024;7.540;2022-07-21T12:42:03;20.60;;;19.10;;
15454;SDS011;21057;51.024;7.540;2022-07-21T12:44:31;20.67;;;19.27;;
15454;SDS011;21057;51.024;7.540;2022-07-21T12:47:11;19.65;;;17.98;;
15454;SDS011;21057;51.024;7.540;2022-07-21T12:49:54;19.52;;;18.17;;
15454;SDS011;21057;51.024;7.540;2022-07-21T12:52:26;20.13;;;18.73;;
15454;SDS011;21057;51.024;7.540;2022-07-21T12:54:53;19.98;;;18.48;;
15454;SDS011;21057;51.024;7.540;2022-07-21T12:57:20;20.10;;;18.70;;
15454;SDS011;21057;51.024;7.540;2022-07-21T12:59:47;21.15;;;19.45;;
15454;SDS011;21057;51.024;7.540;2022-07-21T13:02:14;21.25;;;19.88;;
15454;SDS011;21057;51.024;7.540;2022-07-21T13:04:41;21.40;;;19.90;;
15454;SDS011;21057;51.024;7.540;2022-07-21T13:07:09;20.75;;;19.25;;
15454;SDS011;21057;51.024;7.540;2022-07-21T13:09:36;21.95;;;20.42;;
15454;SDS011;21057;51.024;7.540;2022-07-21T13:12:03;21.30;;;19.80;;
15454;SDS011;21057;51.024;7.540;2022-07-21T13:14:31;21.63;;;19.98;;
15454;SDS011;21057;51.024;7.540;2022-07-21T13:16:58;22.40;;;20.60;;
15454;SDS011;21057;51.024;7.540;2022-07-21T13:19:25;20.88;;;19.35;;
15454;SDS011;21057;51.024;7.540;2022-07-21T13:21:52;19.95;;;18.52;;
15454;SDS011;21057;51.024;7.540;2022-07-21T13:24:20;19.88;;;18.52;;
15454;SDS011;21057;51.024;7.540;2022-07-21T13:26:47;20.35;;;18.92;;
15454;SDS011;21057;51.024;7.540;2022-07-21T13:29:14;20.27;;;18.95;;
15454;SDS011;21057;51.024;7.540;2022-07-21T13:31:41;20.25;;;18.48;;
15454;SDS011;21057;51.024;7.540;2022-07-21T13:34:08;19.98;;;18.48;;
15454;SDS011;21057;51.024;7.540;2022-07-21T13:36:35;20.20;;;18.90;;
15454;SDS011;21057;51.024;7.540;2022-07-21T13:39:03;21.48;;;19.98;;
15454;SDS011;21057;51.024;7.540;2022-07-21T13:41:32;21.00;;;19.60;;
15454;SDS011;21057;51.024;7.540;2022-07-21T13:43:59;22.20;;;20.42;;
15454;SDS011;21057;51.024;7.540;2022-07-21T13:46:26;21.58;;;20.08;;
15454;SDS011;21057;51.024;7.540;2022-07-21T13:48:53;22.13;;;20.42;;
15454;SDS011;21057;51.024;7.540;2022-07-21T13:51:20;22.30;;;20.75;;
15454;SDS011;21057;51.024;7.540;2022-07-21T13:53:49;21.35;;;19.95;;
15454;SDS011;21057;51.024;7.540;2022-07-21T13:56:17;22.35;;;20.75;;
15454;SDS011;21057;51.024;7.540;2022-07-21T13:58:46;22.40;;;20.77;;
15454;SDS011;21057;51.024;7.540;2022-07-21T14:01:13;21.92;;;20.38;;
15454;SDS011;21057;51.024;7.540;2022-07-21T14:03:40;24.10;;;22.20;;
15454;SDS011;21057;51.024;7.540;2022-07-21T14:06:08;23.92;;;22.23;;
15454;SDS011;21057;51.024;7.540;2022-07-21T14:08:35;22.23;;;20.60;;
15454;SDS011;21057;51.024;7.540;2022-07-21T14:11:02;23.55;;;21.98;;
15454;SDS011;21057;51.024;7.540;2022-07-21T14:13:29;24.10;;;22.30;;
15454;SDS011;21057;51.024;7.540;2022-07-21T14:15:57;23.20;;;21.33;;
15454;SDS011;21057;51.024;7.540;2022-07-21T14:18:24;23.63;;;21.63;;
15454;SDS011;21057;51.024;7.540;2022-07-21T14:20:51;24.58;;;22.88;;
15454;SDS011;21057;51.024;7.540;2022-07-21T14:23:18;22.70;;;21.05;;
15454;SDS011;21057;51.024;7.540;2022-07-21T14:25:45;22.63;;;21.02;;
15454;SDS011;21057;51.024;7.540;2022-07-21T14:28:12;23.10;;;21.40;;
15454;SDS011;21057;51.024;7.540;2022-07-21T14:30:40;23.00;;;21.33;;
15454;SDS011;21057;51.024;7.540;2022-07-21T14:33:08;22.75;;;21.05;;
15454;SDS011;21057;51.024;7.540;2022-07-21T14:35:35;22.65;;;20.85;;
15454;SDS011;21057;51.024;7.540;2022-07-21T14:38:03;23.40;;;21.45;;
15454;SDS011;21057;51.024;7.540;2022-07-21T14:40:30;24.48;;;22.50;;
15454;SDS011;21057;51.024;7.540;2022-07-21T14:42:57;25.02;;;23.20;;